Gleason, Arkansas
Current Conditions -  °F | °C
As of 6:58 PM on Thursday 27 Nov 2014 (Local Time) from KLRF Reporting Station
Clear Clear  
Wind Chill: 34°   Ceiling: Unl
Heat Index: 34°   Visibility: 7mi
Dew Point: 28°   Wind: 0mph
Humidity: 79%   Direction: NA
Pressure: 30.46"   Gusts: NA
Location:  35.0822°N, 92.366°W
Report Text: KLRF 280058Z AUTO 00000KT 7SM CLR 01/M02 A3046 RMK AO2 SLP321 T00121021 $
Loading
Personal Weather Stations






























Interactive Weather Map New forecast layout! Learn more

10-Day Weather Forecast

Advertisements
Track Severe Weather on mobile